KBRY/BRY METAR and TAF weather

Enter ICAO airport designator
Station Type Date Time Source
KBRY METAR 2019/11/21 03:35 UTC NOAA

KBRY 210335Z AUTO 00000KT 7SM CLR 02/02 A3023 RMK AO1


Station Type Date Time Source
KBRY Decoded METAR 2019/11/21 03:35 UTC NOAA

Station name not available
Nov 20, 2019 - 10:35 PM EST / 2019.11.21 0335 UTC
Wind: Calm:0
Visibility: 7 mile(s):0
Sky conditions: clear
Temperature: 35 F (2 C)
Dew Point: 35 F (2 C)
Relative Humidity: 100%
Pressure (altimeter): 30.23 in. Hg (1023 hPa)
ob: KBRY 210335Z AUTO 00000KT 7SM CLR 02/02 A3023 RMK AO1
cycle: 3

Station Type Date Time Source
KBRY TAF UTC NOAA

Error!

Example: see airport list